createdAt,value
2022-10-13T00:00:15.700Z,10.81
2022-10-13T00:03:03.816Z,10.84
2022-10-13T00:05:31.961Z,10.87
2022-10-13T00:08:00.579Z,10.88
2022-10-13T00:10:31.547Z,10.88
2022-10-13T00:12:59.637Z,10.89
2022-10-13T00:15:27.832Z,10.90
2022-10-13T00:18:39.746Z,10.90
2022-10-13T00:25:14.370Z,10.89
2022-10-13T00:27:43.113Z,10.88
2022-10-13T00:30:11.511Z,10.88
2022-10-13T00:33:26.345Z,10.89
2022-10-13T00:35:54.458Z,10.89
2022-10-13T00:47:03.267Z,10.79
2022-10-13T00:49:32.197Z,10.76
2022-10-13T00:52:00.362Z,10.71
2022-10-13T00:54:29.854Z,10.67
2022-10-13T00:56:58.092Z,10.64
2022-10-13T00:59:29.259Z,10.62
2022-10-13T01:01:59.452Z,10.62
2022-10-13T01:04:32.247Z,10.59
2022-10-13T01:07:00.582Z,10.57
2022-10-13T01:09:36.099Z,10.56
2022-10-13T01:12:16.812Z,10.53
2022-10-13T01:14:50.905Z,10.55
2022-10-13T01:17:19.229Z,10.54
2022-10-13T01:19:48.108Z,10.55
2022-10-13T01:22:31.122Z,10.57
2022-10-13T01:25:24.646Z,10.60
2022-10-13T01:28:13.034Z,10.62
2022-10-13T01:30:46.006Z,10.65
2022-10-13T01:34:00.404Z,10.67
2022-10-13T01:36:38.830Z,10.71
2022-10-13T01:39:16.734Z,10.73
2022-10-13T01:41:49.065Z,10.75
2022-10-13T01:44:37.406Z,10.78
2022-10-13T01:47:06.316Z,10.81
2022-10-13T01:49:35.584Z,10.81
2022-10-13T01:52:06.645Z,10.83
2022-10-13T01:54:34.921Z,10.82
2022-10-13T01:57:03.161Z,10.81
2022-10-13T01:59:34.063Z,10.81
2022-10-13T02:02:09.111Z,10.81
2022-10-13T02:04:54.143Z,10.83
2022-10-13T02:07:22.202Z,10.83
2022-10-13T02:10:13.416Z,10.82
2022-10-13T02:13:14.182Z,10.81
2022-10-13T02:15:47.900Z,10.82
2022-10-13T02:18:17.338Z,10.80
2022-10-13T02:20:46.163Z,10.78
2022-10-13T02:23:16.033Z,10.76
2022-10-13T02:25:44.892Z,10.79
2022-10-13T02:28:13.599Z,10.79
2022-10-13T02:30:45.954Z,10.80
2022-10-13T02:33:15.114Z,10.83
2022-10-13T02:39:42.519Z,10.89
2022-10-13T02:46:32.763Z,10.99
2022-10-13T02:49:00.900Z,11.02
2022-10-13T02:51:29.777Z,11.06
2022-10-13T02:58:29.779Z,11.11
2022-10-13T03:02:26.841Z,11.09
2022-10-13T03:04:56.246Z,11.07
2022-10-13T03:07:24.577Z,11.08
2022-10-13T03:09:53.022Z,11.06
2022-10-13T03:12:22.026Z,11.02
2022-10-13T03:14:51.505Z,11.01
2022-10-13T03:17:19.928Z,11.00
2022-10-13T03:19:48.438Z,10.99
2022-10-13T03:22:18.588Z,11.01
2022-10-13T03:24:47.017Z,11.01
2022-10-13T03:27:15.878Z,11.02
2022-10-13T03:29:43.964Z,11.03
2022-10-13T03:32:12.156Z,11.05
2022-10-13T03:34:40.283Z,11.04
2022-10-13T03:37:08.752Z,11.06
2022-10-13T03:39:52.635Z,11.05
2022-10-13T03:42:21.983Z,11.04
2022-10-13T03:49:26.526Z,10.99
2022-10-13T03:51:54.640Z,10.98
2022-10-13T03:54:22.872Z,10.96
2022-10-13T03:56:53.062Z,10.94
2022-10-13T03:59:21.230Z,10.96
2022-10-13T04:01:49.420Z,10.99
2022-10-13T04:04:17.605Z,11.00
2022-10-13T04:06:47.227Z,11.02
2022-10-13T04:09:15.295Z,11.04
2022-10-13T04:11:43.534Z,11.05
2022-10-13T04:14:11.741Z,11.04
2022-10-13T04:16:40.616Z,11.04
2022-10-13T04:19:11.758Z,11.04
2022-10-13T04:21:40.754Z,11.04
2022-10-13T04:24:11.781Z,11.06
2022-10-13T04:26:40.020Z,11.06
2022-10-13T04:29:09.318Z,11.05
2022-10-13T04:31:37.519Z,11.05
2022-10-13T04:34:05.772Z,11.05
2022-10-13T04:36:33.892Z,11.01
2022-10-13T04:39:02.038Z,10.94
2022-10-13T04:41:30.291Z,10.87
2022-10-13T04:43:59.321Z,10.83
2022-10-13T04:46:27.696Z,10.76
2022-10-13T04:48:57.644Z,10.74
2022-10-13T04:51:33.457Z,10.71
2022-10-13T04:54:02.280Z,10.72
2022-10-13T04:56:30.409Z,10.71
2022-10-13T04:59:08.364Z,10.70
2022-10-13T05:01:36.458Z,10.71
2022-10-13T05:04:07.590Z,10.73
2022-10-13T05:06:48.822Z,10.74
2022-10-13T05:09:26.072Z,10.75
2022-10-13T05:11:55.342Z,10.75
2022-10-13T05:14:23.631Z,10.76
2022-10-13T05:16:51.736Z,10.79
2022-10-13T05:19:20.511Z,10.82
2022-10-13T05:21:50.764Z,10.84
2022-10-13T05:24:20.990Z,10.86
2022-10-13T05:26:50.876Z,10.89
2022-10-13T05:29:19.077Z,10.91
2022-10-13T05:31:47.248Z,10.93
2022-10-13T05:34:15.350Z,10.95
2022-10-13T05:36:43.438Z,10.99
2022-10-13T05:39:11.585Z,11.01
2022-10-13T05:41:39.714Z,11.05
2022-10-13T05:44:14.871Z,11.08
2022-10-13T05:46:51.753Z,11.11
2022-10-13T05:49:20.005Z,11.13
2022-10-13T05:51:50.880Z,11.17
2022-10-13T05:54:25.530Z,11.21
2022-10-13T05:57:13.879Z,11.26
2022-10-13T05:59:45.308Z,11.31
2022-10-13T06:02:15.326Z,11.37
2022-10-13T06:04:46.024Z,11.41
2022-10-13T06:07:14.554Z,11.44
2022-10-13T06:09:43.297Z,11.47
2022-10-13T06:12:11.578Z,11.50
2022-10-13T06:14:39.988Z,11.52
2022-10-13T06:17:11.253Z,11.55
2022-10-13T06:28:59.944Z,11.67
2022-10-13T06:31:29.102Z,11.69
2022-10-13T06:33:58.064Z,11.73
2022-10-13T06:36:26.270Z,11.76
2022-10-13T06:43:59.270Z,11.82
2022-10-13T06:46:30.647Z,11.84
2022-10-13T06:48:59.379Z,11.86
2022-10-13T06:52:34.087Z,11.88
2022-10-13T06:55:02.174Z,11.90
2022-10-13T06:57:30.718Z,11.90
2022-10-13T07:00:30.939Z,11.89
2022-10-13T07:03:02.112Z,11.90
2022-10-13T07:05:38.011Z,11.90
2022-10-13T07:08:06.482Z,11.91
2022-10-13T07:10:34.703Z,11.94
2022-10-13T07:13:02.894Z,11.97
2022-10-13T07:15:32.100Z,11.97
2022-10-13T07:18:00.390Z,11.96
2022-10-13T07:20:29.657Z,11.97
2022-10-13T07:22:57.885Z,11.99
2022-10-13T07:25:27.539Z,12.00
2022-10-13T07:27:55.744Z,12.02
2022-10-13T07:30:23.896Z,12.04
2022-10-13T07:32:52.021Z,12.04
2022-10-13T07:35:20.233Z,12.07
2022-10-13T07:37:48.438Z,12.10
2022-10-13T07:40:16.592Z,12.12
2022-10-13T07:42:44.711Z,12.14
2022-10-13T07:45:12.809Z,12.17
2022-10-13T07:47:41.072Z,12.18
2022-10-13T07:50:10.405Z,12.18
2022-10-13T07:52:38.584Z,12.19
2022-10-13T07:55:07.004Z,12.20
2022-10-13T07:57:35.198Z,12.20
2022-10-13T08:00:03.806Z,12.20
2022-10-13T08:02:40.386Z,12.16
2022-10-13T08:05:08.610Z,12.13
2022-10-13T08:07:39.364Z,12.11
2022-10-13T08:10:08.318Z,12.09
2022-10-13T08:12:36.823Z,12.07
2022-10-13T08:15:07.942Z,12.05
2022-10-13T08:17:37.122Z,12.06
2022-10-13T08:20:05.821Z,12.05
2022-10-13T08:22:36.520Z,12.06
2022-10-13T08:25:04.924Z,12.06
2022-10-13T08:27:50.176Z,12.07
2022-10-13T08:30:19.508Z,12.10
2022-10-13T08:32:47.818Z,12.09
2022-10-13T08:35:16.085Z,12.07
2022-10-13T08:37:44.187Z,12.08
2022-10-13T08:40:15.104Z,12.10
2022-10-13T08:42:43.581Z,12.12
2022-10-13T08:45:39.379Z,12.14
2022-10-13T08:48:07.735Z,12.15
2022-10-13T08:50:39.404Z,12.15
2022-10-13T08:53:16.490Z,12.16
2022-10-13T08:55:50.338Z,12.18
2022-10-13T08:58:23.954Z,12.20
2022-10-13T09:01:11.198Z,12.21
2022-10-13T09:03:39.271Z,12.21
2022-10-13T09:06:07.459Z,12.24
2022-10-13T09:08:42.049Z,12.27
2022-10-13T09:11:11.800Z,12.33
2022-10-13T09:13:40.337Z,12.39
2022-10-13T09:16:08.542Z,12.42
2022-10-13T09:18:37.798Z,12.45
2022-10-13T09:21:23.043Z,12.49
2022-10-13T09:23:54.249Z,12.53
2022-10-13T09:26:25.883Z,12.55
2022-10-13T09:28:54.180Z,12.59
2022-10-13T09:31:28.500Z,12.64
2022-10-13T09:33:57.913Z,12.67
2022-10-13T09:36:26.443Z,12.70
2022-10-13T09:39:12.193Z,12.73
2022-10-13T09:41:41.987Z,12.80
2022-10-13T09:44:12.698Z,12.86
2022-10-13T09:46:49.023Z,12.93
2022-10-13T09:49:25.841Z,12.96
2022-10-13T09:51:59.286Z,13.00
2022-10-13T09:54:36.866Z,13.03
2022-10-13T09:57:37.868Z,13.07
2022-10-13T10:00:17.133Z,13.14
2022-10-13T10:03:08.400Z,13.22
2022-10-13T10:05:41.182Z,13.27
2022-10-13T10:08:33.947Z,13.31
2022-10-13T10:11:14.029Z,13.37
2022-10-13T10:13:44.320Z,13.40
2022-10-13T10:16:13.810Z,13.44
2022-10-13T10:18:41.933Z,13.44
2022-10-13T10:21:25.784Z,13.43
2022-10-13T10:24:03.142Z,13.43
2022-10-13T10:26:49.628Z,13.44
2022-10-13T10:29:22.485Z,13.44
2022-10-13T10:31:50.679Z,13.44
2022-10-13T10:34:37.569Z,13.51
2022-10-13T10:37:05.838Z,13.57
2022-10-13T10:39:40.494Z,13.71
2022-10-13T10:42:08.595Z,13.94
2022-10-13T10:44:39.305Z,14.08
2022-10-13T10:47:14.317Z,14.22
2022-10-13T10:49:43.024Z,14.43
2022-10-13T10:52:16.555Z,14.74
2022-10-13T10:55:02.970Z,15.00
2022-10-13T10:57:38.722Z,15.11
2022-10-13T11:00:13.745Z,15.17
2022-10-13T11:02:50.630Z,15.15
2022-10-13T11:05:18.947Z,15.18
2022-10-13T11:07:47.179Z,15.16
2022-10-13T11:10:18.295Z,15.12
2022-10-13T11:12:48.032Z,15.12
2022-10-13T11:15:23.581Z,15.09
2022-10-13T11:17:52.407Z,15.01
2022-10-13T11:20:20.739Z,14.93
2022-10-13T11:22:57.998Z,14.80
2022-10-13T11:25:45.058Z,14.77
2022-10-13T11:28:22.525Z,14.67
2022-10-13T11:30:52.139Z,14.62
2022-10-13T11:33:32.451Z,14.59
2022-10-13T11:36:19.390Z,14.52
2022-10-13T11:38:54.555Z,14.47
2022-10-13T11:41:27.301Z,14.43
2022-10-13T11:44:06.333Z,14.42
2022-10-13T11:46:52.706Z,14.41
2022-10-13T11:49:38.078Z,14.48
2022-10-13T11:52:30.371Z,14.59
2022-10-13T11:55:03.215Z,14.62
2022-10-13T11:57:33.014Z,14.57
2022-10-13T12:00:04.741Z,14.54
2022-10-13T12:02:49.879Z,14.54
2022-10-13T12:05:27.231Z,14.53
2022-10-13T12:07:57.480Z,14.53
2022-10-13T12:10:31.161Z,14.51
2022-10-13T12:13:01.616Z,14.52
2022-10-13T12:15:37.872Z,14.54
2022-10-13T12:18:22.269Z,14.60
2022-10-13T12:20:58.027Z,14.62
2022-10-13T12:23:26.928Z,14.61
2022-10-13T12:25:58.789Z,14.59
2022-10-13T12:28:31.049Z,14.63
2022-10-13T12:31:00.459Z,14.62
2022-10-13T12:33:39.011Z,14.71
2022-10-13T12:36:13.249Z,14.82
2022-10-13T12:38:44.395Z,14.95
2022-10-13T12:41:14.603Z,15.02
2022-10-13T12:43:43.074Z,15.10
2022-10-13T12:46:11.697Z,15.21
2022-10-13T12:48:40.512Z,15.33
2022-10-13T12:51:17.289Z,15.44
2022-10-13T12:53:46.938Z,15.64
2022-10-13T12:56:23.050Z,15.93
2022-10-13T12:58:51.226Z,16.07
2022-10-13T13:01:27.195Z,16.11
2022-10-13T13:03:57.290Z,16.14
2022-10-13T13:06:36.383Z,16.14
2022-10-13T13:09:08.337Z,16.10
2022-10-13T13:11:37.580Z,15.96
2022-10-13T13:14:33.446Z,15.81
2022-10-13T13:17:02.888Z,15.94
2022-10-13T13:19:33.038Z,16.09
2022-10-13T13:22:01.530Z,16.24
2022-10-13T13:24:39.714Z,16.22
2022-10-13T13:27:18.243Z,16.18
2022-10-13T13:29:47.215Z,16.16
2022-10-13T13:32:18.151Z,16.06
2022-10-13T13:34:48.556Z,16.02
2022-10-13T13:37:28.695Z,15.99
2022-10-13T13:39:57.815Z,15.99
2022-10-13T13:42:27.806Z,15.93
2022-10-13T13:44:56.286Z,15.86
2022-10-13T13:47:25.605Z,15.89
2022-10-13T13:49:57.142Z,15.88
2022-10-13T13:52:25.716Z,15.79
2022-10-13T13:54:56.217Z,15.80
2022-10-13T13:57:24.372Z,15.81
2022-10-13T13:59:52.656Z,15.82
2022-10-13T14:02:21.896Z,15.83
2022-10-13T14:04:50.003Z,15.84
2022-10-13T14:07:19.847Z,15.83
2022-10-13T14:09:48.654Z,15.78
2022-10-13T14:12:17.357Z,15.72
2022-10-13T14:14:46.008Z,15.63
2022-10-13T14:17:14.733Z,15.54
2022-10-13T14:19:43.163Z,15.35
2022-10-13T14:22:11.233Z,15.20
2022-10-13T14:24:39.746Z,15.08
2022-10-13T14:27:09.271Z,14.99
2022-10-13T14:29:37.603Z,14.91
2022-10-13T14:32:05.937Z,14.85
2022-10-13T14:34:34.069Z,14.79
2022-10-13T14:37:02.173Z,14.77
2022-10-13T14:39:30.469Z,14.75
2022-10-13T14:41:58.767Z,14.72
2022-10-13T14:44:26.916Z,14.70
2022-10-13T14:46:55.006Z,14.66
2022-10-13T14:49:23.187Z,14.59
2022-10-13T14:51:51.764Z,14.51
2022-10-13T14:54:19.912Z,14.42
2022-10-13T14:56:48.109Z,14.36
2022-10-13T14:59:16.290Z,14.27
2022-10-13T15:01:45.157Z,14.19
2022-10-13T15:04:13.376Z,14.12
2022-10-13T15:06:41.989Z,14.06
2022-10-13T15:09:10.614Z,14.01
2022-10-13T15:11:39.004Z,13.94
2022-10-13T15:14:07.846Z,13.88
2022-10-13T15:16:38.039Z,13.84
2022-10-13T15:19:06.270Z,13.81
2022-10-13T15:21:40.031Z,13.77
2022-10-13T15:24:11.641Z,13.74
2022-10-13T15:26:44.441Z,13.68
2022-10-13T15:29:13.922Z,13.64
2022-10-13T15:31:45.193Z,13.60
2022-10-13T15:34:14.919Z,13.57
2022-10-13T15:36:45.302Z,13.51
2022-10-13T15:39:14.439Z,13.41
2022-10-13T15:41:45.296Z,13.37
2022-10-13T15:44:13.442Z,13.32
2022-10-13T15:46:53.929Z,13.26
2022-10-13T15:49:29.903Z,13.18
2022-10-13T15:51:58.044Z,13.09
2022-10-13T15:54:26.232Z,13.04
2022-10-13T15:56:54.370Z,12.93
2022-10-13T15:59:22.458Z,12.86
2022-10-13T16:01:50.534Z,12.78
2022-10-13T16:04:18.612Z,12.70
2022-10-13T16:06:46.697Z,12.63
2022-10-13T16:09:14.787Z,12.56
2022-10-13T16:11:42.922Z,12.49
2022-10-13T16:14:11.039Z,12.42
2022-10-13T16:16:39.168Z,12.34
2022-10-13T16:19:07.362Z,12.30
2022-10-13T16:21:35.575Z,12.24
2022-10-13T16:24:06.008Z,12.20
2022-10-13T16:26:34.152Z,12.18
2022-10-13T16:29:02.301Z,12.15
2022-10-13T16:31:30.856Z,12.11
2022-10-13T16:33:59.020Z,12.08
2022-10-13T16:36:27.177Z,12.06
2022-10-13T16:38:55.414Z,12.04
2022-10-13T16:41:24.196Z,12.02
2022-10-13T16:43:52.334Z,12.01
2022-10-13T16:46:20.814Z,12.00
2022-10-13T16:48:48.954Z,11.96
2022-10-13T16:51:24.157Z,11.96
2022-10-13T16:54:01.150Z,11.90
2022-10-13T16:56:32.705Z,11.83
2022-10-13T16:59:02.066Z,11.76
2022-10-13T17:01:30.681Z,11.71
2022-10-13T17:03:59.207Z,11.69
2022-10-13T17:06:28.163Z,11.69
2022-10-13T17:09:00.781Z,11.70
2022-10-13T17:11:30.229Z,11.68
2022-10-13T17:13:58.757Z,11.66
2022-10-13T17:16:31.987Z,11.63
2022-10-13T17:19:00.291Z,11.59
2022-10-13T17:21:34.155Z,11.56
2022-10-13T17:24:02.275Z,11.51
2022-10-13T17:26:30.408Z,11.45
2022-10-13T17:28:58.558Z,11.40
2022-10-13T17:31:26.696Z,11.35
2022-10-13T17:33:54.981Z,11.30
2022-10-13T17:36:27.286Z,11.24
2022-10-13T17:38:56.434Z,11.18
2022-10-13T17:41:24.671Z,11.13
2022-10-13T17:43:52.846Z,11.11
2022-10-13T17:46:39.236Z,11.06
2022-10-13T17:49:10.324Z,11.01
2022-10-13T17:51:39.122Z,11.00
2022-10-13T17:54:10.273Z,11.01
2022-10-13T17:56:42.768Z,11.01
2022-10-13T17:59:10.994Z,10.99
2022-10-13T18:01:39.428Z,10.94
2022-10-13T18:04:15.453Z,10.90
2022-10-13T18:06:44.290Z,10.88
2022-10-13T18:09:14.019Z,10.85
2022-10-13T18:11:47.069Z,10.82
2022-10-13T18:14:21.627Z,10.81
2022-10-13T18:16:50.352Z,10.77
2022-10-13T18:19:18.603Z,10.72
2022-10-13T18:21:46.929Z,10.70
2022-10-13T18:24:15.068Z,10.68
2022-10-13T18:26:43.174Z,10.68
2022-10-13T18:29:11.840Z,10.68
2022-10-13T18:31:40.998Z,10.68
2022-10-13T18:34:12.559Z,10.68
2022-10-13T18:36:41.033Z,10.68
2022-10-13T18:39:13.427Z,10.67
2022-10-13T18:41:42.848Z,10.64
2022-10-13T18:44:11.003Z,10.59
2022-10-13T18:46:39.446Z,10.55
2022-10-13T18:49:08.741Z,10.51
2022-10-13T18:51:38.439Z,10.47
2022-10-13T18:54:06.859Z,10.41
2022-10-13T18:56:37.073Z,10.35
2022-10-13T18:59:06.189Z,10.32
2022-10-13T19:01:35.171Z,10.29
2022-10-13T19:04:03.494Z,10.28
2022-10-13T19:06:32.639Z,10.27
2022-10-13T19:09:02.642Z,10.25
2022-10-13T19:11:31.590Z,10.23
2022-10-13T19:14:00.303Z,10.22
2022-10-13T19:16:29.702Z,10.22
2022-10-13T19:18:58.223Z,10.22
2022-10-13T19:21:26.551Z,10.20
2022-10-13T19:23:55.297Z,10.20
2022-10-13T19:26:24.721Z,10.20
2022-10-13T19:28:56.927Z,10.21
2022-10-13T19:31:26.267Z,10.20
2022-10-13T19:33:54.888Z,10.19
2022-10-13T19:36:37.939Z,10.21
2022-10-13T19:39:08.700Z,10.25
2022-10-13T19:41:38.176Z,10.23
2022-10-13T19:44:06.317Z,10.23
2022-10-13T19:46:40.830Z,10.22
2022-10-13T19:49:09.521Z,10.20
2022-10-13T19:51:38.461Z,10.17
2022-10-13T19:54:06.634Z,10.16
2022-10-13T19:56:37.517Z,10.14
2022-10-13T19:59:09.127Z,10.14
2022-10-13T20:01:40.143Z,10.12
2022-10-13T20:04:14.508Z,10.10
2022-10-13T20:06:44.807Z,10.07
2022-10-13T20:09:13.407Z,10.05
2022-10-13T20:11:43.784Z,10.00
2022-10-13T20:14:12.144Z,9.91
2022-10-13T20:16:40.581Z,9.83
2022-10-13T20:19:11.184Z,9.76
2022-10-13T20:21:40.063Z,9.71
2022-10-13T20:24:12.502Z,9.69
2022-10-13T20:26:43.133Z,9.69
2022-10-13T20:29:13.483Z,9.71
2022-10-13T20:31:44.667Z,9.73
2022-10-13T20:34:12.879Z,9.74
2022-10-13T20:36:41.479Z,9.75
2022-10-13T20:39:12.592Z,9.73
2022-10-13T20:41:41.115Z,9.73
2022-10-13T20:44:12.509Z,9.72
2022-10-13T20:46:41.463Z,9.70
2022-10-13T20:49:11.489Z,9.65
2022-10-13T20:51:49.679Z,9.59
2022-10-13T20:54:18.412Z,9.53
2022-10-13T20:56:56.445Z,9.51
2022-10-13T20:59:25.440Z,9.53
2022-10-13T21:01:58.242Z,9.53
2022-10-13T21:04:32.060Z,9.51
2022-10-13T21:07:00.249Z,9.50
2022-10-13T21:09:28.447Z,9.49
2022-10-13T21:12:05.700Z,9.49
2022-10-13T21:14:57.143Z,9.47
2022-10-13T21:17:49.760Z,9.43
2022-10-13T21:20:21.565Z,9.37
2022-10-13T21:22:50.731Z,9.35
2022-10-13T21:25:19.291Z,9.32
2022-10-13T21:27:52.320Z,9.30
2022-10-13T21:30:20.599Z,9.30
2022-10-13T21:32:49.211Z,9.29
2022-10-13T21:35:26.802Z,9.28
2022-10-13T21:37:58.657Z,9.30
2022-10-13T21:40:26.979Z,9.33
2022-10-13T21:42:55.289Z,9.36
2022-10-13T21:45:23.945Z,9.41
2022-10-13T21:47:52.219Z,9.47
2022-10-13T21:50:20.415Z,9.53
2022-10-13T21:52:48.822Z,9.56
2022-10-13T21:55:17.166Z,9.58
2022-10-13T21:57:46.411Z,9.61
2022-10-13T22:00:15.214Z,9.64
2022-10-13T22:03:04.058Z,9.66
2022-10-13T22:05:42.641Z,9.68
2022-10-13T22:08:10.801Z,9.70
2022-10-13T22:10:38.917Z,9.73
2022-10-13T22:13:07.015Z,9.76
2022-10-13T22:15:35.256Z,9.79
2022-10-13T22:18:03.515Z,9.81
2022-10-13T22:20:35.716Z,9.83
2022-10-13T22:23:03.856Z,9.85
2022-10-13T22:25:31.956Z,9.88
2022-10-13T22:28:00.111Z,9.90
2022-10-13T22:30:28.195Z,9.89
2022-10-13T22:32:56.287Z,9.89
2022-10-13T22:35:24.420Z,9.90
2022-10-13T22:37:52.560Z,9.92
2022-10-13T22:40:20.644Z,9.93
2022-10-13T22:42:49.611Z,9.94
2022-10-13T22:45:17.717Z,9.93
2022-10-13T22:47:48.330Z,9.94
2022-10-13T22:50:16.456Z,9.95
2022-10-13T22:52:45.288Z,9.97
2022-10-13T22:55:13.434Z,9.98
2022-10-13T22:57:41.588Z,9.98
2022-10-13T23:00:10.299Z,9.96
2022-10-13T23:02:41.433Z,9.97
2022-10-13T23:05:09.649Z,9.95
2022-10-13T23:07:38.077Z,9.94
2022-10-13T23:10:06.528Z,9.93
2022-10-13T23:12:34.647Z,9.93
2022-10-13T23:15:02.857Z,9.94
2022-10-13T23:17:31.091Z,9.94
2022-10-13T23:19:59.273Z,9.94
2022-10-13T23:22:27.562Z,9.96
2022-10-13T23:24:57.537Z,9.98
2022-10-13T23:27:25.899Z,9.98
2022-10-13T23:29:53.968Z,10.00
2022-10-13T23:32:22.747Z,10.03
2022-10-13T23:34:50.862Z,10.05
2022-10-13T23:37:20.198Z,10.07
2022-10-13T23:39:48.573Z,10.05
2022-10-13T23:42:19.523Z,10.04
2022-10-13T23:44:47.723Z,10.05
2022-10-13T23:47:15.863Z,10.05
2022-10-13T23:49:44.080Z,10.08
2022-10-13T23:52:12.247Z,10.08
2022-10-13T23:54:40.347Z,10.08
2022-10-13T23:57:08.439Z,10.10
2022-10-13T23:59:36.983Z,10.11
